Time;durP1;ratioP1;P1;durP2;ratioP2;P2;SDS_P1;SDS_P2;PMS_P1;PMS_P2;Temp;Humidity;BMP_temperature;BMP_pressure;BME280_temperature;BME280_humidity;BME280_pressure;Samples;Min_cycle;Max_cycle;Signal;HPM_P1;HPM_P2
2021/07/20 00:01:33;;;;;;;;;;;;;;;;;;2142561;59;1355;-70
2021/07/20 00:03:58;;;;;;;;;;;;;;;;;;2143853;59;1935;-70
2021/07/20 00:06:23;;;;;;;;;;;;;;;;;;2142277;66;1144;-72
2021/07/20 00:08:48;;;;;;;;;;;;;;;;;;2143217;66;1311;-71
2021/07/20 00:11:13;;;;;;;;;;;;;;;;;;2142727;59;1195;-72
2021/07/20 00:13:39;;;;;;;;;;;;;;;;;;2143336;59;1565;-68
2021/07/20 00:16:04;;;;;;;;;;;;;;;;;;2143092;59;1274;-72
2021/07/20 00:18:33;;;;;;;;;;;;;;;;;;2144051;66;1224;-69
2021/07/20 00:20:59;;;;;;;;;;;;;;;;;;2141979;59;1573;-72
2021/07/20 00:23:24;;;;;;;;;;;;;;;;;;2141965;66;1405;-73
2021/07/20 00:25:50;;;;;;;;;;;;;;;;;;2141062;66;1929;-71
2021/07/20 00:28:16;;;;;;;;;;;;;;;;;;2141928;66;1136;-71
2021/07/20 00:30:41;;;;;;;;;;;;;;;;;;2141296;66;1340;-69
2021/07/20 00:33:07;;;;;;;;;;;;;;;;;;2142974;66;1180;-72
2021/07/20 00:35:32;;;;;;;;;;;;;;;;;;2143067;66;1244;-71
2021/07/20 00:37:57;;;;;;;;;;;;;;;;;;2142717;66;1069;-71
2021/07/20 00:40:23;;;;;;;;;;;;;;;;;;2143292;66;1297;-72
2021/07/20 00:42:48;;;;;;;;;;;;;;;;;;2142413;66;1074;-71
2021/07/20 00:45:14;;;;;;;;;;;;;;;;;;2141407;59;1963;-72
2021/07/20 00:47:40;;;;;;;;;;;;;;;;;;2141987;66;1218;-72
2021/07/20 00:50:06;;;;;;;;;;;;;;;;;;2141518;66;1147;-72
2021/07/20 00:52:31;;;;;;;;;;;;;;;;;;2142186;66;1283;-72
2021/07/20 00:54:56;;;;;;;;;;;;;;;;;;2143434;66;1227;-70
2021/07/20 00:57:22;;;;;;;;;;;;;;;;;;2141981;66;1232;-70
2021/07/20 00:59:47;;;;;;;;;;;;;;;;;;2142960;66;1167;-72
2021/07/20 01:02:13;;;;;;;;;;;;;;;;;;2144075;66;1218;-72
2021/07/20 01:04:38;;;;;;;;;;;;;;;;;;2143227;59;1936;-71
2021/07/20 01:07:05;;;;;;;;;;;;;;;;;;2141881;66;1325;-71
2021/07/20 01:09:30;;;;;;;;;;;;;;;;;;2143096;66;1276;-71
2021/07/20 01:11:56;;;;;;;;;;;;;;;;;;2142720;59;1264;-71
2021/07/20 01:14:21;;;;;;;;;;;;;;;;;;2142159;66;1235;-72
2021/07/20 01:16:47;;;;;;;;;;;;;;;;;;2142792;59;1525;-70
2021/07/20 01:19:14;;;;;;;;;;;;;;;;;;2142237;66;1244;-70
2021/07/20 01:21:39;;;;;;;;;;;;;;;;;;2140511;66;1223;-69
2021/07/20 01:24:09;;;;;;;;;;;;;;;;;;2141973;59;1991;-70
2021/07/20 01:26:34;;;;;;;;;;;;;;;;;;2142197;66;1250;-71
2021/07/20 01:29:02;;;;;;;;;;;;;;;;;;2141945;66;1211;-71
2021/07/20 01:31:28;;;;;;;;;;;;;;;;;;2142269;66;1169;-70
2021/07/20 01:33:54;;;;;;;;;;;;;;;;;;2140558;67;1316;-71
2021/07/20 01:36:21;;;;;;;;;;;;;;;;;;2142213;66;1158;-70
2021/07/20 01:38:46;;;;;;;;;;;;;;;;;;2142064;66;1356;-71
2021/07/20 01:41:13;;;;;;;;;;;;;;;;;;2141505;66;1761;-71
2021/07/20 01:43:41;;;;;;;;;;;;;;;;;;2139899;67;1403;-71
2021/07/20 01:46:08;;;;;;;;;;;;;;;;;;2139141;67;1983;-70
2021/07/20 01:48:35;;;;;;;;;;;;;;;;;;2141546;59;1228;-70
2021/07/20 01:51:01;;;;;;;;;;;;;;;;;;2140814;66;1465;-70
2021/07/20 01:53:26;;;;;;;;;;;;;;;;;;2142120;66;1247;-71
2021/07/20 01:55:52;;;;;;;;;;;;;;;;;;2141635;66;1226;-71
2021/07/20 01:58:17;;;;;;;;;;;;;;;;;;2143072;66;1167;-71
2021/07/20 02:00:42;;;;;;;;;;;;;;;;;;2140949;66;1217;-71
2021/07/20 02:08:50;;;;;;;;;;;;;;;;;;2140015;59;1029;-72
2021/07/20 02:11:20;;;;;;;;;;;;;;;;;;2140368;59;1153;-71
2021/07/20 02:13:55;;;;;;;;;;;;;;;;;;2139311;59;1266;-71
2021/07/20 02:16:23;;;;;;;;;;;;;;;;;;2141369;59;1354;-70
2021/07/20 02:18:56;;;;;;;;;;;;;;;;;;2138532;66;1221;-70
2021/07/20 02:21:23;;;;;;;;;;;;;;;;;;2141801;66;1179;-71
2021/07/20 02:23:49;;;;;;;;;;;;;;;;;;2141080;59;1331;-71
2021/07/20 02:26:15;;;;;;;;;;;;;;;;;;2140746;66;1937;-71
2021/07/20 02:28:40;;;;;;;;;;;;;;;;;;2141083;66;1146;-70
2021/07/20 02:31:07;;;;;;;;;;;;;;;;;;2140968;66;1232;-71
2021/07/20 02:33:34;;;;;;;;;;;;;;;;;;2141231;66;1236;-71
2021/07/20 02:35:59;;;;;;;;;;;;;;;;;;2141463;66;1159;-71
2021/07/20 02:38:25;;;;;;;;;;;;;;;;;;2140294;66;1170;-70
2021/07/20 02:40:50;;;;;;;;;;;;;;;;;;2142498;59;1224;-70
2021/07/20 02:43:17;;;;;;;;;;;;;;;;;;2140863;66;1165;-72
2021/07/20 02:45:42;;;;;;;;;;;;;;;;;;2140560;66;1929;-70
2021/07/20 02:48:08;;;;;;;;;;;;;;;;;;2140415;66;1319;-72
2021/07/20 02:50:34;;;;;;;;;;;;;;;;;;2142121;66;1183;-71
2021/07/20 02:53:00;;;;;;;;;;;;;;;;;;2141454;66;1151;-71
2021/07/20 02:55:26;;;;;;;;;;;;;;;;;;2139977;66;1288;-71
2021/07/20 02:57:52;;;;;;;;;;;;;;;;;;2141404;66;1140;-70
2021/07/20 03:00:17;;;;;;;;;;;;;;;;;;2141828;66;1223;-70
2021/07/20 03:02:44;;;;;;;;;;;;;;;;;;2140655;59;1214;-72
2021/07/20 03:05:10;;;;;;;;;;;;;;;;;;2141228;59;1927;-70
2021/07/20 03:07:36;;;;;;;;;;;;;;;;;;2140652;67;1209;-72
2021/07/20 03:10:03;;;;;;;;;;;;;;;;;;2140405;67;1370;-71
2021/07/20 03:12:30;;;;;;;;;;;;;;;;;;2141300;59;1264;-70
2021/07/20 03:14:55;;;;;;;;;;;;;;;;;;2140018;67;1276;-71
2021/07/20 03:17:22;;;;;;;;;;;;;;;;;;2140920;59;1567;-71
2021/07/20 03:19:48;;;;;;;;;;;;;;;;;;2141682;67;1146;-70
2021/07/20 03:22:14;;;;;;;;;;;;;;;;;;2141188;67;1184;-71
2021/07/20 03:24:40;;;;;;;;;;;;;;;;;;2141683;67;1925;-71
2021/07/20 03:27:06;;;;;;;;;;;;;;;;;;2141217;67;1166;-70
2021/07/20 03:29:31;;;;;;;;;;;;;;;;;;2141856;67;1226;-72
2021/07/20 03:31:57;;;;;;;;;;;;;;;;;;2138547;67;1251;-70
2021/07/20 03:34:22;;;;;;;;;;;;;;;;;;2140476;67;1230;-69
2021/07/20 03:36:48;;;;;;;;;;;;;;;;;;2140770;67;1211;-72
2021/07/20 03:39:14;;;;;;;;;;;;;;;;;;2140527;67;1047;-72
2021/07/20 03:41:40;;;;;;;;;;;;;;;;;;2141932;59;1284;-71
2021/07/20 03:44:05;;;;;;;;;;;;;;;;;;2141590;67;1934;-72
2021/07/20 03:46:31;;;;;;;;;;;;;;;;;;2142037;67;1215;-70
2021/07/20 03:48:56;;;;;;;;;;;;;;;;;;2141527;59;1160;-72
2021/07/20 03:51:23;;;;;;;;;;;;;;;;;;2143422;67;1128;-70
2021/07/20 03:53:49;;;;;;;;;;;;;;;;;;2142114;67;1268;-70
2021/07/20 03:56:15;;;;;;;;;;;;;;;;;;2141010;67;1306;-70
2021/07/20 03:58:41;;;;;;;;;;;;;;;;;;2142270;59;1262;-71
2021/07/20 04:01:06;;;;;;;;;;;;;;;;;;2141511;67;1147;-69
2021/07/20 04:03:32;;;;;;;;;;;;;;;;;;2140493;67;1143;-72
2021/07/20 04:06:02;;;;;;;;;;;;;;;;;;2139788;59;1927;-68
2021/07/20 04:08:29;;;;;;;;;;;;;;;;;;2140103;66;1099;-70
2021/07/20 04:10:55;;;;;;;;;;;;;;;;;;2141353;66;1263;-70
2021/07/20 04:13:21;;;;;;;;;;;;;;;;;;2141089;66;1118;-71
2021/07/20 04:15:46;;;;;;;;;;;;;;;;;;2141088;59;1331;-70
2021/07/20 04:18:12;;;;;;;;;;;;;;;;;;2143179;66;1275;-72
2021/07/20 04:20:37;;;;;;;;;;;;;;;;;;2141881;66;1162;-72
2021/07/20 04:23:02;;;;;;;;;;;;;;;;;;2142897;66;1219;-70
2021/07/20 04:25:28;;;;;;;;;;;;;;;;;;2141777;66;1971;-70
2021/07/20 04:27:53;;;;;;;;;;;;;;;;;;2140740;66;1225;-69
2021/07/20 04:30:18;;;;;;;;;;;;;;;;;;2138586;67;1490;-70
2021/07/20 04:32:48;;;;;;;;;;;;;;;;;;2142584;66;1184;-71
2021/07/20 04:35:14;;;;;;;;;;;;;;;;;;2140471;67;1280;-70
2021/07/20 04:37:41;;;;;;;;;;;;;;;;;;2142559;66;1234;-71
2021/07/20 04:40:07;;;;;;;;;;;;;;;;;;2142663;66;1175;-72
2021/07/20 04:42:34;;;;;;;;;;;;;;;;;;2142403;66;1197;-71
2021/07/20 04:44:59;;;;;;;;;;;;;;;;;;2142499;66;1927;-71
2021/07/20 04:47:24;;;;;;;;;;;;;;;;;;2142604;59;1271;-73
2021/07/20 04:49:50;;;;;;;;;;;;;;;;;;2142488;66;1124;-70
2021/07/20 04:52:16;;;;;;;;;;;;;;;;;;2142659;66;1156;-69
2021/07/20 04:54:42;;;;;;;;;;;;;;;;;;2141899;59;1307;-69
2021/07/20 04:57:07;;;;;;;;;;;;;;;;;;2142596;66;1241;-69
2021/07/20 04:59:33;;;;;;;;;;;;;;;;;;2142486;66;1164;-72
2021/07/20 05:01:58;;;;;;;;;;;;;;;;;;2142744;66;1165;-69
2021/07/20 05:04:26;;;;;;;;;;;;;;;;;;2142462;59;1917;-70
2021/07/20 05:06:51;;;;;;;;;;;;;;;;;;2142294;66;1220;-70
2021/07/20 05:09:17;;;;;;;;;;;;;;;;;;2143367;66;1256;-70
2021/07/20 05:11:43;;;;;;;;;;;;;;;;;;2141636;66;1151;-69
2021/07/20 05:14:08;;;;;;;;;;;;;;;;;;2140744;67;1348;-69
2021/07/20 05:16:34;;;;;;;;;;;;;;;;;;2141549;66;1153;-70
2021/07/20 05:19:00;;;;;;;;;;;;;;;;;;2141465;66;1397;-72
2021/07/20 05:21:25;;;;;;;;;;;;;;;;;;2142426;66;1279;-71
2021/07/20 05:23:51;;;;;;;;;;;;;;;;;;2142057;66;1182;-70
2021/07/20 05:26:16;;;;;;;;;;;;;;;;;;2142278;66;1995;-70
2021/07/20 05:28:42;;;;;;;;;;;;;;;;;;2142303;66;1069;-73
2021/07/20 05:31:09;;;;;;;;;;;;;;;;;;2142530;66;1066;-69
2021/07/20 05:33:34;;;;;;;;;;;;;;;;;;2142569;66;1223;-71
2021/07/20 05:36:00;;;;;;;;;;;;;;;;;;2141385;66;1171;-69
2021/07/20 05:38:26;;;;;;;;;;;;;;;;;;2143168;66;1075;-70
2021/07/20 05:40:53;;;;;;;;;;;;;;;;;;2142317;66;1301;-70
2021/07/20 05:43:18;;;;;;;;;;;;;;;;;;2142965;66;1149;-70
2021/07/20 05:45:44;;;;;;;;;;;;;;;;;;2142504;66;1920;-71
2021/07/20 05:48:10;;;;;;;;;;;;;;;;;;2143792;59;1308;-70
2021/07/20 05:50:40;;;;;;;;;;;;;;;;;;2142430;66;1139;-70
2021/07/20 05:53:08;;;;;;;;;;;;;;;;;;2142036;66;1172;-69
2021/07/20 05:55:34;;;;;;;;;;;;;;;;;;2142429;66;1260;-70
2021/07/20 05:57:59;;;;;;;;;;;;;;;;;;2142276;66;1073;-69
2021/07/20 06:00:27;;;;;;;;;;;;;;;;;;2141685;66;1105;-71
2021/07/20 06:02:53;;;;;;;;;;;;;;;;;;2142200;66;1286;-71
2021/07/20 06:05:20;;;;;;;;;;;;;;;;;;2142096;59;1923;-72
2021/07/20 06:07:45;;;;;;;;;;;;;;;;;;2139978;66;1192;-70
2021/07/20 06:10:15;;;;;;;;;;;;;;;;;;2141890;66;1129;-70
2021/07/20 06:12:42;;;;;;;;;;;;;;;;;;2141772;66;1210;-70
2021/07/20 06:15:07;;;;;;;;;;;;;;;;;;2142145;59;1297;-71
2021/07/20 06:17:32;;;;;;;;;;;;;;;;;;2142065;66;1151;-69
2021/07/20 06:19:59;;;;;;;;;;;;;;;;;;2142311;66;1167;-71
2021/07/20 06:22:27;;;;;;;;;;;;;;;;;;2142128;66;1227;-70
2021/07/20 06:24:53;;;;;;;;;;;;;;;;;;2141473;66;1981;-71
2021/07/20 06:27:18;;;;;;;;;;;;;;;;;;2141051;66;1154;-70
2021/07/20 06:29:45;;;;;;;;;;;;;;;;;;2140041;67;1355;-71
2021/07/20 06:32:11;;;;;;;;;;;;;;;;;;2140772;67;1473;-70
2021/07/20 06:34:38;;;;;;;;;;;;;;;;;;2141347;66;1229;-71
2021/07/20 06:37:04;;;;;;;;;;;;;;;;;;2142069;66;1243;-70
2021/07/20 06:39:30;;;;;;;;;;;;;;;;;;2142936;66;1222;-70
2021/07/20 06:41:56;;;;;;;;;;;;;;;;;;2141814;66;1262;-70
2021/07/20 06:44:22;;;;;;;;;;;;;;;;;;2142493;66;1927;-72
2021/07/20 06:46:48;;;;;;;;;;;;;;;;;;2141435;66;1229;-71
2021/07/20 06:49:14;;;;;;;;;;;;;;;;;;2141549;66;1305;-70
2021/07/20 06:51:39;;;;;;;;;;;;;;;;;;2141647;66;1139;-73
2021/07/20 06:54:04;;;;;;;;;;;;;;;;;;2142164;66;1096;-70
2021/07/20 06:56:40;;;;;;;;;;;;;;;;;;2142775;66;1216;-71
2021/07/20 06:59:06;;;;;;;;;;;;;;;;;;2139427;67;1189;-70
2021/07/20 07:01:32;;;;;;;;;;;;;;;;;;2142523;66;1203;-70
2021/07/20 07:04:00;;;;;;;;;;;;;;;;;;2141392;59;1227;-70
2021/07/20 07:06:26;;;;;;;;;;;;;;;;;;2142324;67;1947;-70
2021/07/20 07:08:52;;;;;;;;;;;;;;;;;;2141102;67;1203;-71
2021/07/20 07:11:17;;;;;;;;;;;;;;;;;;2142335;67;1174;-70
2021/07/20 07:13:43;;;;;;;;;;;;;;;;;;2140269;67;1215;-71
2021/07/20 07:16:09;;;;;;;;;;;;;;;;;;2141537;59;1383;-71
2021/07/20 07:18:36;;;;;;;;;;;;;;;;;;2141171;67;1149;-70
2021/07/20 07:21:01;;;;;;;;;;;;;;;;;;2142687;67;1411;-71
2021/07/20 07:23:28;;;;;;;;;;;;;;;;;;2141084;67;1190;-70
2021/07/20 07:25:57;;;;;;;;;;;;;;;;;;2142435;67;1918;-71
2021/07/20 07:28:23;;;;;;;;;;;;;;;;;;2141208;67;1235;-70
2021/07/20 07:30:50;;;;;;;;;;;;;;;;;;2142631;67;1169;-70
2021/07/20 07:33:15;;;;;;;;;;;;;;;;;;2141387;67;1082;-71
2021/07/20 07:35:41;;;;;;;;;;;;;;;;;;2141784;67;1178;-71
2021/07/20 07:38:06;;;;;;;;;;;;;;;;;;2142244;67;1171;-71
2021/07/20 07:40:33;;;;;;;;;;;;;;;;;;2141936;67;1252;-70
2021/07/20 07:42:59;;;;;;;;;;;;;;;;;;2142428;66;1233;-72
2021/07/20 07:45:25;;;;;;;;;;;;;;;;;;2142361;66;2015;-71
2021/07/20 07:47:51;;;;;;;;;;;;;;;;;;2142651;66;1155;-70
2021/07/20 07:50:17;;;;;;;;;;;;;;;;;;2142944;66;1206;-71
2021/07/20 07:52:42;;;;;;;;;;;;;;;;;;2141034;66;1172;-70
2021/07/20 07:55:08;;;;;;;;;;;;;;;;;;2142285;66;1203;-70
2021/07/20 07:57:34;;;;;;;;;;;;;;;;;;2142892;66;1256;-70
2021/07/20 08:00:00;;;;;;;;;;;;;;;;;;2141163;66;1163;-72
2021/07/20 08:02:29;;;;;;;;;;;;;;;;;;2142653;59;1165;-73
2021/07/20 08:04:54;;;;;;;;;;;;;;;;;;2142855;59;1992;-71
2021/07/20 08:07:20;;;;;;;;;;;;;;;;;;2143157;53;1888;-68
2021/07/20 08:09:46;;;;;;;;;;;;;;;;;;2137670;59;1376;-68
2021/07/20 08:12:12;;;;;;;;;;;;;;;;;;2139273;67;1177;-69
2021/07/20 08:14:38;;;;;;;;;;;;;;;;;;2139644;59;1215;-68
2021/07/20 08:17:04;;;;;;;;;;;;;;;;;;2139168;67;1536;-69
2021/07/20 08:19:33;;;;;;;;;;;;;;;;;;2140181;67;1344;-69
2021/07/20 08:22:01;;;;;;;;;;;;;;;;;;2138779;67;1085;-68
2021/07/20 08:24:27;;;;;;;;;;;;;;;;;;2137880;59;1921;-69
2021/07/20 08:26:56;;;;;;;;;;;;;;;;;;2139365;67;1309;-68
2021/07/20 08:29:25;;;;;;;;;;;;;;;;;;2138199;67;1176;-67
2021/07/20 08:31:57;;;;;;;;;;;;;;;;;;2138312;59;1082;-68
2021/07/20 08:34:23;;;;;;;;;;;;;;;;;;2137999;67;1250;-68
2021/07/20 08:36:49;;;;;;;;;;;;;;;;;;2138828;67;1264;-67
2021/07/20 08:39:16;;;;;;;;;;;;;;;;;;2138803;67;1182;-68
2021/07/20 08:42:01;;;;;;;;;;;;;;;;;;2132824;60;1301;-68
2021/07/20 08:44:56;;;;;;;;;;;;;;;;;;2134515;67;1992;-67
2021/07/20 08:47:23;;;;;;;;;;;;;;;;;;2134571;67;1255;-67
2021/07/20 08:49:48;;;;;;;;;;;;;;;;;;2136977;59;1337;-67
2021/07/20 08:52:16;;;;;;;;;;;;;;;;;;2136090;67;1554;-67
2021/07/20 08:54:45;;;;;;;;;;;;;;;;;;2138647;67;1349;-68
2021/07/20 08:57:15;;;;;;;;;;;;;;;;;;2138648;67;1260;-67
2021/07/20 08:59:54;;;;;;;;;;;;;;;;;;2138987;67;1271;-66
2021/07/20 09:02:26;;;;;;;;;;;;;;;;;;2135446;67;1218;-67
2021/07/20 09:05:31;;;;;;;;;;;;;;;;;;2138477;67;1971;-66
2021/07/20 09:07:56;;;;;;;;;;;;;;;;;;2118300;67;1636;-66
2021/07/20 09:10:22;;;;;;;;;;;;;;;;;;2116307;67;1142;-66
2021/07/20 09:12:49;;;;;;;;;;;;;;;;;;2126116;67;1266;-65
2021/07/20 09:15:19;;;;;;;;;;;;;;;;;;2137552;59;1277;-65
2021/07/20 09:17:48;;;;;;;;;;;;;;;;;;2138796;67;1317;-65
2021/07/20 09:20:31;;;;;;;;;;;;;;;;;;2134597;59;1324;-66
2021/07/20 09:23:00;;;;;;;;;;;;;;;;;;2137138;67;1181;-66
2021/07/20 09:25:31;;;;;;;;;;;;;;;;;;2139350;67;1975;-66
2021/07/20 09:28:05;;;;;;;;;;;;;;;;;;2138130;67;1160;-66
2021/07/20 09:30:32;;;;;;;;;;;;;;;;;;2139171;67;1057;-66
2021/07/20 09:33:09;;;;;;;;;;;;;;;;;;2138985;67;1276;-66
2021/07/20 09:35:45;;;;;;;;;;;;;;;;;;2139845;67;1265;-67
2021/07/20 09:38:15;;;;;;;;;;;;;;;;;;2135125;67;1201;-66
2021/07/20 09:40:43;;;;;;;;;;;;;;;;;;2139968;67;1187;-66
2021/07/20 09:43:17;;;;;;;;;;;;;;;;;;2137594;67;1125;-66
2021/07/20 09:45:43;;;;;;;;;;;;;;;;;;2138050;67;1920;-66
2021/07/20 09:48:28;;;;;;;;;;;;;;;;;;2137404;67;1173;-66
2021/07/20 09:51:16;;;;;;;;;;;;;;;;;;2136606;67;1113;-66
2021/07/20 09:53:48;;;;;;;;;;;;;;;;;;2137047;67;2198;-66
2021/07/20 09:56:22;;;;;;;;;;;;;;;;;;2136712;67;1276;-66
2021/07/20 09:59:06;;;;;;;;;;;;;;;;;;2137157;67;1447;-66
2021/07/20 10:01:41;;;;;;;;;;;;;;;;;;2136985;67;1449;-66
2021/07/20 10:04:39;;;;;;;;;;;;;;;;;;2137117;67;1249;-65
2021/07/20 10:07:18;;;;;;;;;;;;;;;;;;2125699;59;1324;-66
2021/07/20 10:09:44;;;;;;;;;;;;;;;;;;2136243;67;1717;-66
2021/07/20 10:12:16;;;;;;;;;;;;;;;;;;2137820;59;1049;-66
2021/07/20 10:14:59;;;;;;;;;;;;;;;;;;2138821;67;1219;-67
2021/07/20 10:17:30;;;;;;;;;;;;;;;;;;2137191;67;1308;-65
2021/07/20 10:19:56;;;;;;;;;;;;;;;;;;2136956;67;1131;-67
2021/07/20 10:22:44;;;;;;;;;;;;;;;;;;2138039;67;1085;-66
2021/07/20 10:25:14;;;;;;;;;;;;;;;;;;2130645;67;1943;-66
2021/07/20 10:27:51;;;;;;;;;;;;;;;;;;2138354;67;1316;-66
2021/07/20 10:30:17;;;;;;;;;;;;;;;;;;2137593;67;1204;-66
2021/07/20 10:33:01;;;;;;;;;;;;;;;;;;2138418;67;1175;-66
2021/07/20 10:35:34;;;;;;;;;;;;;;;;;;2137969;67;1184;-65
2021/07/20 10:38:00;;;;;;;;;;;;;;;;;;2138620;67;1129;-67
2021/07/20 10:40:26;;;;;;;;;;;;;;;;;;2139224;67;1167;-66
2021/07/20 10:42:56;;;;;;;;;;;;;;;;;;2139049;67;1155;-65
2021/07/20 10:45:22;;;;;;;;;;;;;;;;;;2138894;67;1925;-66
2021/07/20 10:47:47;;;;;;;;;;;;;;;;;;2138783;59;1310;-67
2021/07/20 10:50:15;;;;;;;;;;;;;;;;;;2136960;60;1188;-66
2021/07/20 10:52:40;;;;;;;;;;;;;;;;;;2135332;67;1386;-66
2021/07/20 10:55:10;;;;;;;;;;;;;;;;;;2139304;67;1150;-66
2021/07/20 10:57:40;;;;;;;;;;;;;;;;;;2139509;67;1207;-66
2021/07/20 11:00:08;;;;;;;;;;;;;;;;;;2138057;67;1203;-67
2021/07/20 11:02:58;;;;;;;;;;;;;;;;;;2137381;67;2142;-66
2021/07/20 11:05:26;;;;;;;;;;;;;;;;;;2137457;67;1935;-66
2021/07/20 11:08:02;;;;;;;;;;;;;;;;;;2137573;59;1183;-66
2021/07/20 11:10:33;;;;;;;;;;;;;;;;;;2134454;67;1160;-66
2021/07/20 11:13:10;;;;;;;;;;;;;;;;;;2138274;67;1075;-66
2021/07/20 11:15:37;;;;;;;;;;;;;;;;;;2137664;59;1255;-66
2021/07/20 11:18:13;;;;;;;;;;;;;;;;;;2138922;59;1165;-65
2021/07/20 11:20:40;;;;;;;;;;;;;;;;;;2139295;67;1168;-66
2021/07/20 11:23:05;;;;;;;;;;;;;;;;;;2138087;59;1410;-65
2021/07/20 11:25:32;;;;;;;;;;;;;;;;;;2137881;67;1923;-68
2021/07/20 11:27:59;;;;;;;;;;;;;;;;;;2139755;67;1063;-68
2021/07/20 11:30:26;;;;;;;;;;;;;;;;;;2139278;67;1164;-68
2021/07/20 11:32:57;;;;;;;;;;;;;;;;;;2137670;67;1223;-67
2021/07/20 11:35:23;;;;;;;;;;;;;;;;;;2137987;67;1162;-68
2021/07/20 11:37:52;;;;;;;;;;;;;;;;;;2139753;67;1285;-66
2021/07/20 11:40:22;;;;;;;;;;;;;;;;;;2139211;59;1188;-66
2021/07/20 11:42:51;;;;;;;;;;;;;;;;;;2139604;67;1140;-68
2021/07/20 11:45:17;;;;;;;;;;;;;;;;;;2139003;59;1981;-68
2021/07/20 11:47:55;;;;;;;;;;;;;;;;;;2139442;67;1224;-67
2021/07/20 11:50:39;;;;;;;;;;;;;;;;;;2138776;67;1112;-67
2021/07/20 11:53:15;;;;;;;;;;;;;;;;;;2138273;67;1149;-68
2021/07/20 11:55:45;;;;;;;;;;;;;;;;;;2139551;67;1252;-68
2021/07/20 11:58:19;;;;;;;;;;;;;;;;;;2138347;67;1571;-67
2021/07/20 12:00:57;;;;;;;;;;;;;;;;;;2137345;67;1215;-68
2021/07/20 12:03:35;;;;;;;;;;;;;;;;;;2139992;67;1165;-68
2021/07/20 12:06:06;;;;;;;;;;;;;;;;;;2139536;59;1982;-67
2021/07/20 12:08:50;;;;;;;;;;;;;;;;;;2137961;62;1284;-67
2021/07/20 12:11:23;;;;;;;;;;;;;;;;;;2139381;67;1166;-67
2021/07/20 12:13:49;;;;;;;;;;;;;;;;;;2138643;67;1218;-67
2021/07/20 12:16:14;;;;;;;;;;;;;;;;;;2140498;59;1276;-68
2021/07/20 12:18:49;;;;;;;;;;;;;;;;;;2138591;67;1262;-67
2021/07/20 12:21:15;;;;;;;;;;;;;;;;;;2139344;67;1167;-67
2021/07/20 12:23:41;;;;;;;;;;;;;;;;;;2138950;67;1259;-67
2021/07/20 12:26:06;;;;;;;;;;;;;;;;;;2139283;59;1929;-68
2021/07/20 12:28:31;;;;;;;;;;;;;;;;;;2138685;67;1196;-68
2021/07/20 12:30:58;;;;;;;;;;;;;;;;;;2139313;67;1051;-68
2021/07/20 12:33:23;;;;;;;;;;;;;;;;;;2138389;67;1142;-67
2021/07/20 12:35:49;;;;;;;;;;;;;;;;;;2138663;67;1213;-68
2021/07/20 12:38:20;;;;;;;;;;;;;;;;;;2138894;67;1164;-67
2021/07/20 12:40:45;;;;;;;;;;;;;;;;;;2139370;67;1136;-67
2021/07/20 12:43:14;;;;;;;;;;;;;;;;;;2138925;67;1198;-69
2021/07/20 12:45:41;;;;;;;;;;;;;;;;;;2139116;67;1927;-69
2021/07/20 12:48:19;;;;;;;;;;;;;;;;;;2138957;67;1181;-66
2021/07/20 12:50:44;;;;;;;;;;;;;;;;;;2137932;67;1266;-67
2021/07/20 12:53:09;;;;;;;;;;;;;;;;;;2139175;67;1176;-66
2021/07/20 12:55:35;;;;;;;;;;;;;;;;;;2139105;67;1223;-66
2021/07/20 12:58:00;;;;;;;;;;;;;;;;;;2135548;67;1369;-67
2021/07/20 13:00:26;;;;;;;;;;;;;;;;;;2138223;67;1254;-66
2021/07/20 13:02:52;;;;;;;;;;;;;;;;;;2138547;67;1175;-68
2021/07/20 13:05:18;;;;;;;;;;;;;;;;;;2138800;67;1926;-66
2021/07/20 13:07:43;;;;;;;;;;;;;;;;;;2139035;59;1188;-66
2021/07/20 13:10:10;;;;;;;;;;;;;;;;;;2136250;67;1047;-66
2021/07/20 13:12:38;;;;;;;;;;;;;;;;;;2139263;67;1180;-66
2021/07/20 13:15:11;;;;;;;;;;;;;;;;;;2139363;59;1274;-67
2021/07/20 13:17:36;;;;;;;;;;;;;;;;;;2138763;67;1167;-66
2021/07/20 13:20:04;;;;;;;;;;;;;;;;;;2138663;67;1286;-66
2021/07/20 13:22:34;;;;;;;;;;;;;;;;;;2138930;67;1175;-66
2021/07/20 13:24:59;;;;;;;;;;;;;;;;;;2138179;67;1951;-66
2021/07/20 13:27:24;;;;;;;;;;;;;;;;;;2139245;67;1255;-67
2021/07/20 13:29:49;;;;;;;;;;;;;;;;;;2137863;67;1163;-66
2021/07/20 13:32:15;;;;;;;;;;;;;;;;;;2135907;67;1152;-67
2021/07/20 13:34:41;;;;;;;;;;;;;;;;;;2136907;67;1278;-67
2021/07/20 13:37:07;;;;;;;;;;;;;;;;;;2138566;67;1192;-66
2021/07/20 13:39:32;;;;;;;;;;;;;;;;;;2138632;67;1214;-66
2021/07/20 13:41:58;;;;;;;;;;;;;;;;;;2138035;59;1437;-67
2021/07/20 13:44:24;;;;;;;;;;;;;;;;;;2137068;67;1219;-68
2021/07/20 13:46:50;;;;;;;;;;;;;;;;;;2137887;67;1943;-68
2021/07/20 13:49:19;;;;;;;;;;;;;;;;;;2137394;67;1232;-68
2021/07/20 13:51:46;;;;;;;;;;;;;;;;;;2134818;67;1196;-67
2021/07/20 13:54:12;;;;;;;;;;;;;;;;;;2136874;67;1160;-69
2021/07/20 13:56:39;;;;;;;;;;;;;;;;;;2139111;67;1219;-68
2021/07/20 13:59:07;;;;;;;;;;;;;;;;;;2138637;67;1138;-67
2021/07/20 14:01:34;;;;;;;;;;;;;;;;;;2138726;67;1211;-66
2021/07/20 14:04:00;;;;;;;;;;;;;;;;;;2137169;67;1351;-68
2021/07/20 14:06:25;;;;;;;;;;;;;;;;;;2146654;53;1943;-69
2021/07/20 14:08:51;;;;;;;;;;;;;;;;;;2144423;59;1202;-69
2021/07/20 14:11:16;;;;;;;;;;;;;;;;;;2144098;66;1257;-70
2021/07/20 14:13:42;;;;;;;;;;;;;;;;;;2142958;66;1383;-72
2021/07/20 14:16:11;;;;;;;;;;;;;;;;;;2145649;59;1272;-69
2021/07/20 14:18:38;;;;;;;;;;;;;;;;;;2146209;66;1202;-69
2021/07/20 14:21:06;;;;;;;;;;;;;;;;;;2145384;66;1226;-68
2021/07/20 14:23:36;;;;;;;;;;;;;;;;;;2144143;58;1156;-70
2021/07/20 14:26:01;;;;;;;;;;;;;;;;;;2146492;66;1945;-69
2021/07/20 14:28:27;;;;;;;;;;;;;;;;;;2142682;66;1191;-71
2021/07/20 14:30:54;;;;;;;;;;;;;;;;;;2144375;66;1238;-71
2021/07/20 14:33:20;;;;;;;;;;;;;;;;;;2144486;59;2056;-70
2021/07/20 14:35:45;;;;;;;;;;;;;;;;;;2144151;59;1475;-69
2021/07/20 14:38:14;;;;;;;;;;;;;;;;;;2144267;66;1374;-70
2021/07/20 14:40:40;;;;;;;;;;;;;;;;;;2144302;59;1205;-69
2021/07/20 14:43:07;;;;;;;;;;;;;;;;;;2145776;66;1332;-70
2021/07/20 14:45:33;;;;;;;;;;;;;;;;;;2145701;59;1929;-69
2021/07/20 14:47:59;;;;;;;;;;;;;;;;;;2146050;59;1259;-69
2021/07/20 14:50:26;;;;;;;;;;;;;;;;;;2144570;66;1194;-70
2021/07/20 14:53:07;;;;;;;;;;;;;;;;;;2145572;66;1124;-69
2021/07/20 14:55:47;;;;;;;;;;;;;;;;;;2145960;66;1211;-71
2021/07/20 14:58:18;;;;;;;;;;;;;;;;;;2146412;66;1126;-69
2021/07/20 15:00:52;;;;;;;;;;;;;;;;;;2145029;66;1143;-70
2021/07/20 15:03:37;;;;;;;;;;;;;;;;;;2146359;66;1218;-70
2021/07/20 15:06:13;;;;;;;;;;;;;;;;;;2143517;59;1933;-71
2021/07/20 15:08:41;;;;;;;;;;;;;;;;;;2144684;66;1334;-71
2021/07/20 15:11:14;;;;;;;;;;;;;;;;;;2145786;66;1248;-70
2021/07/20 15:13:43;;;;;;;;;;;;;;;;;;2145817;66;1049;-69
2021/07/20 15:16:09;;;;;;;;;;;;;;;;;;2146575;59;1528;-71
2021/07/20 15:18:53;;;;;;;;;;;;;;;;;;2142836;66;1166;-69
2021/07/20 15:21:19;;;;;;;;;;;;;;;;;;2144989;66;1285;-69
2021/07/20 15:23:46;;;;;;;;;;;;;;;;;;2147090;66;1131;-70
2021/07/20 15:26:12;;;;;;;;;;;;;;;;;;2144999;66;1988;-69
2021/07/20 15:28:39;;;;;;;;;;;;;;;;;;2146248;66;1101;-70
2021/07/20 15:31:05;;;;;;;;;;;;;;;;;;2146126;66;1131;-72
2021/07/20 15:33:38;;;;;;;;;;;;;;;;;;2144189;66;1152;-70
2021/07/20 15:36:03;;;;;;;;;;;;;;;;;;2143505;66;1352;-70
2021/07/20 15:38:28;;;;;;;;;;;;;;;;;;2146082;66;1163;-70
2021/07/20 15:40:55;;;;;;;;;;;;;;;;;;2145472;66;1218;-70
2021/07/20 15:43:21;;;;;;;;;;;;;;;;;;2145758;66;1049;-72
2021/07/20 15:45:47;;;;;;;;;;;;;;;;;;2146572;66;2024;-71
2021/07/20 15:48:15;;;;;;;;;;;;;;;;;;2144236;66;1060;-69
2021/07/20 15:50:40;;;;;;;;;;;;;;;;;;2144243;66;1152;-70
2021/07/20 15:53:06;;;;;;;;;;;;;;;;;;2142619;66;1303;-71
2021/07/20 15:55:32;;;;;;;;;;;;;;;;;;2146146;66;2122;-71
2021/07/20 15:57:59;;;;;;;;;;;;;;;;;;2145494;66;1061;-70
2021/07/20 16:00:27;;;;;;;;;;;;;;;;;;2145304;66;1068;-71
2021/07/20 16:02:52;;;;;;;;;;;;;;;;;;2144880;66;1163;-70
2021/07/20 16:05:18;;;;;;;;;;;;;;;;;;2146681;66;1972;-71
2021/07/20 16:07:45;;;;;;;;;;;;;;;;;;2145230;66;1206;-72
2021/07/20 16:10:11;;;;;;;;;;;;;;;;;;2144546;66;992;-71
2021/07/20 16:12:37;;;;;;;;;;;;;;;;;;2146453;66;1036;-72
2021/07/20 16:15:31;;;;;;;;;;;;;;;;;;2145693;66;1211;-72
2021/07/20 16:18:01;;;;;;;;;;;;;;;;;;2142528;66;1388;-71
2021/07/20 16:20:28;;;;;;;;;;;;;;;;;;2145650;59;1158;-73
2021/07/20 16:22:54;;;;;;;;;;;;;;;;;;2146369;66;1088;-72
2021/07/20 16:25:20;;;;;;;;;;;;;;;;;;2146039;66;1933;-71
2021/07/20 16:27:47;;;;;;;;;;;;;;;;;;2146597;66;1173;-70
2021/07/20 16:30:14;;;;;;;;;;;;;;;;;;2145878;62;1054;-73
2021/07/20 16:32:40;;;;;;;;;;;;;;;;;;2146768;66;1137;-72
2021/07/20 16:35:05;;;;;;;;;;;;;;;;;;2144688;66;1153;-70
2021/07/20 16:37:31;;;;;;;;;;;;;;;;;;2145649;66;1168;-72
2021/07/20 16:40:03;;;;;;;;;;;;;;;;;;2145781;66;1206;-71
2021/07/20 16:42:28;;;;;;;;;;;;;;;;;;2145679;66;1152;-71
2021/07/20 16:44:56;;;;;;;;;;;;;;;;;;2145751;66;1972;-71
2021/07/20 16:47:22;;;;;;;;;;;;;;;;;;2145712;66;1202;-70
2021/07/20 16:49:47;;;;;;;;;;;;;;;;;;2144461;66;1234;-73
2021/07/20 16:52:12;;;;;;;;;;;;;;;;;;2146314;66;1570;-71
2021/07/20 16:54:38;;;;;;;;;;;;;;;;;;2146593;66;1013;-71
2021/07/20 16:57:13;;;;;;;;;;;;;;;;;;2146195;66;1170;-71
2021/07/20 16:59:39;;;;;;;;;;;;;;;;;;2146081;66;1148;-71
2021/07/20 17:02:04;;;;;;;;;;;;;;;;;;2145917;66;1062;-72
2021/07/20 17:04:30;;;;;;;;;;;;;;;;;;2144851;66;1140;-72
2021/07/20 17:06:55;;;;;;;;;;;;;;;;;;2146066;58;1975;-71
2021/07/20 17:09:20;;;;;;;;;;;;;;;;;;2146437;66;1170;-71
2021/07/20 17:11:46;;;;;;;;;;;;;;;;;;2146932;66;1167;-72
2021/07/20 17:14:11;;;;;;;;;;;;;;;;;;2144946;66;1239;-72